Time;durP1;ratioP1;P1;durP2;ratioP2;P2;SDS_P1;SDS_P2;PMS_P1;PMS_P2;Temp;Humidity;BMP_temperature;BMP_pressure;BME280_temperature;BME280_humidity;BME280_pressure;Samples;Min_cycle;Max_cycle;Signal;HPM_P1;HPM_P2
2022/06/18 00:01:53;;;;;;;0.00;0.00;;;21.30;85.50;;;;;;5011958;28;20030;-66
2022/06/18 00:04:23;;;;;;;0.20;0.20;;;21.30;85.70;;;;;;5010139;28;20036;-67
2022/06/18 00:06:56;;;;;;;0.00;0.00;;;21.30;85.50;;;;;;5011414;28;20050;-66
2022/06/18 00:09:31;;;;;;;1.35;1.25;;;21.40;83.90;;;;;;5010681;28;20034;-67
2022/06/18 00:15:23;;;;;;;1.52;0.20;;;21.40;83.20;;;;;;5010316;28;20497;-68
2022/06/18 00:17:50;;;;;;;5.38;0.30;;;21.40;84.00;;;;;;5011273;28;20093;-68
2022/06/18 00:20:18;;;;;;;0.63;0.63;;;21.30;84.90;;;;;;5009011;28;20026;-69
2022/06/18 00:22:49;;;;;;;0.38;0.30;;;21.20;87.00;;;;;;5009932;28;20018;-68
2022/06/18 00:25:36;;;;;;;2.33;1.15;;;21.00;88.70;;;;;;5010013;28;20474;-68
2022/06/18 00:28:10;;;;;;;0.13;0.10;;;20.80;90.50;;;;;;5010306;28;20058;-66
2022/06/18 00:30:37;;;;;;;1.63;0.85;;;20.40;91.90;;;;;;5009362;28;20037;-66
2022/06/18 00:33:02;;;;;;;0.70;0.38;;;20.40;92.00;;;;;;5011165;28;20042;-68
2022/06/18 00:35:28;;;;;;;2.65;0.73;;;20.50;92.00;;;;;;5010636;28;20045;-69
2022/06/18 00:37:59;;;;;;;0.40;0.28;;;20.20;92.90;;;;;;5010844;28;20030;-68
2022/06/18 00:40:43;;;;;;;3.97;1.90;;;20.30;93.40;;;;;;5009038;28;20080;-68
2022/06/18 00:43:28;;;;;;;1.08;0.80;;;20.20;94.00;;;;;;5009226;28;20025;-68
2022/06/18 00:46:40;;;;;;;0.00;0.00;;;20.10;94.30;;;;;;5010638;28;20033;-66
2022/06/18 00:49:33;;;;;;;0.38;0.38;;;20.00;94.40;;;;;;5009313;28;20030;-65
2022/06/18 00:52:29;;;;;;;0.73;0.17;;;20.00;94.70;;;;;;5009646;28;20119;-66
2022/06/18 00:55:13;;;;;;;0.00;0.00;;;19.90;95.00;;;;;;5025901;28;20042;-66
2022/06/18 00:58:06;;;;;;;0.25;0.25;;;19.90;95.30;;;;;;5009729;28;20029;-66
2022/06/18 01:00:41;;;;;;;0.15;0.10;;;19.90;95.40;;;;;;5010038;28;20033;-68
2022/06/18 01:03:22;;;;;;;0.05;0.05;;;19.90;95.30;;;;;;5009242;28;20022;-68
2022/06/18 01:05:49;;;;;;;0.03;0.03;;;19.80;95.70;;;;;;5010581;28;20073;-68
2022/06/18 01:08:19;;;;;;;0.20;0.20;;;19.70;96.20;;;;;;5010817;28;20030;-68
2022/06/18 01:10:50;;;;;;;0.00;0.00;;;19.70;96.40;;;;;;5008915;28;20040;-68
2022/06/18 01:13:21;;;;;;;;;;;19.80;94.90;;;;;;5010220;28;20069;-68
2022/06/18 01:15:48;;;;;;;1.20;0.65;;;20.00;94.40;;;;;;5009297;28;19932;-68
2022/06/18 01:18:15;;;;;;;0.00;0.00;;;20.00;94.70;;;;;;5009311;28;20497;-68
2022/06/18 01:21:00;;;;;;;0.55;0.55;;;20.20;92.80;;;;;;5008760;28;20065;-68
2022/06/18 01:24:03;;;;;;;0.00;0.00;;;20.40;92.20;;;;;;5009349;28;20058;-68
2022/06/18 01:26:29;;;;;;;0.15;0.15;;;20.40;92.80;;;;;;4998846;28;20041;-68
2022/06/18 01:28:55;;;;;;;1.48;0.52;;;20.40;93.10;;;;;;5009541;28;20030;-68
2022/06/18 01:31:20;;;;;;;0.13;0.13;;;20.30;93.60;;;;;;5010392;28;20029;-68
2022/06/18 01:33:49;;;;;;;0.00;0.00;;;20.20;94.40;;;;;;5010890;28;20501;-68
2022/06/18 01:36:14;;;;;;;0.28;0.20;;;19.90;95.90;;;;;;5008895;28;20045;-68
2022/06/18 01:38:44;;;;;;;1.40;1.30;;;19.90;96.30;;;;;;5008564;28;20030;-68
2022/06/18 01:44:37;;;;;;;0.00;0.00;;;20.00;95.50;;;;;;5009146;28;20391;-68
2022/06/18 01:47:38;;;;;;;2.38;0.60;;;20.10;93.70;;;;;;5008793;28;20030;-68
2022/06/18 01:50:11;;;;;;;0.00;0.00;;;20.20;93.40;;;;;;4977094;28;20125;-68
2022/06/18 01:52:43;;;;;;;0.00;0.00;;;20.20;93.50;;;;;;5009065;28;20112;-68
2022/06/18 01:55:21;;;;;;;0.13;0.13;;;20.10;94.00;;;;;;5011828;28;20026;-68
2022/06/18 01:57:55;;;;;;;0.60;0.28;;;20.20;94.40;;;;;;5013008;28;20021;-68
2022/06/18 02:00:26;;;;;;;0.17;0.17;;;20.10;95.20;;;;;;4996362;28;20030;-68
2022/06/18 02:02:53;;;;;;;0.00;0.00;;;20.20;94.80;;;;;;5013078;28;20037;-69
2022/06/18 02:05:21;;;;;;;0.10;0.10;;;20.20;93.90;;;;;;5012717;28;20038;-68
2022/06/18 02:07:48;;;;;;;0.00;0.00;;;20.30;94.30;;;;;;5012751;28;20076;-69
2022/06/18 02:10:39;;;;;;;0.45;0.38;;;20.20;94.40;;;;;;5011758;28;20061;-68
2022/06/18 02:13:05;;;;;;;;;;;20.10;94.40;;;;;;5013090;28;20109;-68
2022/06/18 02:15:41;;;;;;;0.00;0.00;;;20.10;95.30;;;;;;5013771;28;19949;-68
2022/06/18 02:18:12;;;;;;;8.20;2.83;;;20.10;95.90;;;;;;5012505;28;20034;-68
2022/06/18 02:20:46;;;;;;;0.43;0.43;;;20.10;95.90;;;;;;4995456;28;20390;-69
2022/06/18 02:23:12;;;;;;;0.10;0.10;;;20.10;94.50;;;;;;5012259;28;20477;-68
2022/06/18 02:25:39;;;;;;;0.00;0.00;;;20.20;94.90;;;;;;5012213;28;20140;-69
2022/06/18 02:28:29;;;;;;;0.55;0.55;;;20.10;94.70;;;;;;5012246;28;20044;-68
2022/06/18 02:31:01;;;;;;;0.70;0.47;;;20.00;95.20;;;;;;4997655;28;20648;-68
2022/06/18 02:33:31;;;;;;;0.00;0.00;;;19.90;95.00;;;;;;5013548;28;20029;-68
2022/06/18 02:36:20;;;;;;;0.33;0.33;;;19.80;96.10;;;;;;5016400;23;20547;-68
2022/06/18 02:38:47;;;;;;;0.25;0.17;;;19.80;95.70;;;;;;4991683;28;20487;-69
2022/06/18 02:41:13;;;;;;;0.57;0.57;;;19.80;95.50;;;;;;4954900;29;20046;-68
2022/06/18 02:43:43;;;;;;;1.20;0.35;;;19.80;95.60;;;;;;4954794;29;20035;-68
2022/06/18 02:46:10;;;;;;;0.10;0.10;;;19.90;95.90;;;;;;4985554;28;20050;-68
2022/06/18 02:48:37;;;;;;;0.55;0.43;;;19.90;96.40;;;;;;4968786;28;20511;-68
2022/06/18 02:51:05;;;;;;;0.20;0.20;;;19.60;97.10;;;;;;4954348;29;20039;-68
2022/06/18 02:53:32;;;;;;;0.70;0.65;;;19.60;97.60;;;;;;4969362;28;20058;-68
2022/06/18 02:56:03;;;;;;;0.13;0.13;;;19.50;98.20;;;;;;4968914;28;20075;-68
2022/06/18 02:58:37;;;;;;;1.75;0.68;;;19.60;98.50;;;;;;4953795;29;20038;-69
2022/06/18 03:01:08;;;;;;;0.15;0.15;;;19.60;98.70;;;;;;4969178;28;20027;-69
2022/06/18 03:03:42;;;;;;;0.17;0.15;;;19.60;98.90;;;;;;4954669;28;20086;-68
2022/06/18 03:06:09;;;;;;;1.75;0.43;;;19.50;98.80;;;;;;4968978;28;20075;-68
2022/06/18 03:08:37;;;;;;;0.20;0.10;;;19.50;99.30;;;;;;4968333;28;20395;-67
2022/06/18 03:13:49;;;;;;;0.13;0.10;;;19.70;99.90;;;;;;4966611;28;20047;-66
2022/06/18 03:16:19;;;;;;;0.28;0.20;;;19.60;99.90;;;;;;4953962;28;20149;-67
2022/06/18 03:18:45;;;;;;;0.03;0.00;;;19.50;99.90;;;;;;4967882;28;20396;-67
2022/06/18 03:21:20;;;;;;;0.00;0.00;;;19.30;99.90;;;;;;4968712;28;20027;-67
2022/06/18 03:23:46;;;;;;;0.35;0.30;;;19.20;99.90;;;;;;4968994;28;20035;-67
2022/06/18 03:26:14;;;;;;;0.35;0.32;;;19.20;99.90;;;;;;4954073;28;20023;-68
2022/06/18 03:28:40;;;;;;;0.45;0.35;;;19.20;99.90;;;;;;4953164;29;20039;-68
2022/06/18 03:31:06;;;;;;;0.20;0.10;;;19.10;99.90;;;;;;4953980;29;20031;-67
2022/06/18 03:33:32;;;;;;;0.05;0.05;;;19.10;99.90;;;;;;4953928;29;20082;-68
2022/06/18 03:36:00;;;;;;;0.00;0.00;;;18.90;99.90;;;;;;4968440;28;20118;-67
2022/06/18 03:38:25;;;;;;;0.00;0.00;;;18.60;99.90;;;;;;4984186;28;20116;-67
2022/06/18 03:40:52;;;;;;;0.32;0.22;;;18.60;99.90;;;;;;4953237;29;20027;-67
2022/06/18 03:43:23;;;;;;;0.20;0.20;;;18.40;99.90;;;;;;4953692;29;20105;-66
2022/06/18 03:45:58;;;;;;;0.00;0.00;;;18.20;99.90;;;;;;4952193;28;20558;-67
2022/06/18 03:48:56;;;;;;;0.85;0.47;;;18.40;99.90;;;;;;4967737;28;20045;-68
2022/06/18 03:51:23;;;;;;;2.13;0.88;;;18.40;99.90;;;;;;4953898;28;20217;-67
2022/06/18 03:53:50;;;;;;;0.38;0.38;;;18.50;99.90;;;;;;4951922;29;20031;-67
2022/06/18 03:56:20;;;;;;;1.45;0.75;;;18.50;99.90;;;;;;4953373;28;20078;-67
2022/06/18 03:58:47;;;;;;;1.13;0.40;;;18.40;99.90;;;;;;4951149;29;20031;-67
2022/06/18 04:01:19;;;;;;;0.20;0.20;;;18.70;99.90;;;;;;4968092;28;20051;-65
2022/06/18 04:03:45;;;;;;;0.20;0.20;;;18.80;99.90;;;;;;4953162;29;20093;-66
2022/06/18 04:06:14;;;;;;;0.00;0.00;;;19.10;99.90;;;;;;4967856;28;20031;-66
2022/06/18 04:08:41;;;;;;;0.57;0.47;;;19.20;99.90;;;;;;4952471;29;20443;-66
2022/06/18 04:11:09;;;;;;;0.10;0.10;;;19.50;99.90;;;;;;4952947;29;20031;-65
2022/06/18 04:13:35;;;;;;;1.50;1.40;;;19.60;99.90;;;;;;4953070;29;20031;-66
2022/06/18 04:16:01;;;;;;;1.35;0.75;;;19.80;99.70;;;;;;4952749;28;20118;-66
2022/06/18 04:18:27;;;;;;;0.13;0.13;;;19.80;99.80;;;;;;4967201;28;20043;-65
2022/06/18 04:20:54;;;;;;;1.08;0.80;;;19.80;99.60;;;;;;4953135;29;20032;-65
2022/06/18 04:23:20;;;;;;;0.28;0.28;;;19.90;99.00;;;;;;4953022;29;20031;-65
2022/06/18 04:25:46;;;;;;;0.25;0.20;;;19.90;98.50;;;;;;4952881;28;20399;-65
2022/06/18 04:28:15;;;;;;;0.00;0.00;;;19.90;97.90;;;;;;4967636;28;20042;-65
2022/06/18 04:30:40;;;;;;;0.47;0.47;;;20.10;97.30;;;;;;4966866;28;20035;-65
2022/06/18 04:33:07;;;;;;;0.13;0.13;;;19.90;97.00;;;;;;4952464;29;20027;-65
2022/06/18 04:35:33;;;;;;;0.80;0.52;;;19.90;97.00;;;;;;4966976;28;20039;-65
2022/06/18 04:38:00;;;;;;;0.15;0.15;;;19.80;96.90;;;;;;4952701;29;20031;-66
2022/06/18 04:40:33;;;;;;;0.70;0.63;;;19.80;96.90;;;;;;4952153;29;20023;-65
2022/06/18 04:43:02;;;;;;;0.45;0.32;;;19.80;96.90;;;;;;4967136;28;20114;-65
2022/06/18 04:45:29;;;;;;;0.00;0.00;;;19.80;96.80;;;;;;4967027;28;20042;-65
2022/06/18 04:47:57;;;;;;;0.03;0.03;;;19.80;96.90;;;;;;4952531;29;20023;-65
2022/06/18 04:50:28;;;;;;;0.25;0.17;;;19.70;97.10;;;;;;4966277;28;20110;-65
2022/06/18 04:52:54;;;;;;;0.00;0.00;;;19.70;96.90;;;;;;4952107;29;20389;-65
2022/06/18 04:55:20;;;;;;;0.00;0.00;;;19.80;96.20;;;;;;4967338;28;20031;-66
2022/06/18 04:57:46;;;;;;;0.00;0.00;;;19.80;96.30;;;;;;4952635;29;20031;-65
2022/06/18 05:00:13;;;;;;;1.08;0.45;;;19.80;96.60;;;;;;4966454;28;20074;-65
2022/06/18 05:02:39;;;;;;;1.17;1.08;;;19.70;97.20;;;;;;4952618;29;20507;-65
2022/06/18 05:05:13;;;;;;;0.38;0.30;;;19.80;97.40;;;;;;4952411;29;20046;-65
2022/06/18 05:07:39;;;;;;;0.00;0.00;;;19.80;97.20;;;;;;4952211;29;20035;-65
2022/06/18 05:10:05;;;;;;;0.20;0.20;;;19.90;97.00;;;;;;4951675;29;20094;-66
2022/06/18 05:12:31;;;;;;;0.22;0.22;;;19.90;96.80;;;;;;4966854;28;20402;-66
2022/06/18 05:14:57;;;;;;;0.20;0.17;;;19.90;97.60;;;;;;4951914;29;20039;-65
2022/06/18 05:17:28;;;;;;;0.00;0.00;;;20.00;98.10;;;;;;4952340;28;20121;-66
2022/06/18 05:19:54;;;;;;;0.17;0.10;;;20.00;97.80;;;;;;4962526;28;20032;-69
2022/06/18 05:22:19;;;;;;;0.25;0.20;;;20.20;97.80;;;;;;4943698;29;20032;-70
2022/06/18 05:24:45;;;;;;;0.43;0.43;;;20.30;97.00;;;;;;4952379;29;20031;-70
2022/06/18 05:27:26;;;;;;;1.50;1.13;;;20.30;96.90;;;;;;4950759;28;20089;-69
2022/06/18 05:29:54;;;;;;;1.85;1.48;;;20.30;96.80;;;;;;4954048;29;20046;-69
2022/06/18 05:32:20;;;;;;;3.40;1.48;;;20.40;96.50;;;;;;4954684;29;20109;-70
2022/06/18 05:34:46;;;;;;;0.20;0.20;;;20.50;96.40;;;;;;4954719;29;20031;-70
2022/06/18 05:37:19;;;;;;;0.10;0.10;;;20.60;96.70;;;;;;4955050;28;20036;-69
2022/06/18 05:39:45;;;;;;;8.50;1.27;;;20.80;96.00;;;;;;4937831;29;20051;-71
2022/06/18 05:42:11;;;;;;;0.10;0.10;;;20.80;96.10;;;;;;4954349;29;20035;-71
2022/06/18 05:44:37;;;;;;;0.25;0.25;;;20.90;95.70;;;;;;4954504;28;20066;-69
2022/06/18 05:47:15;;;;;;;0.15;0.13;;;20.90;95.80;;;;;;4954445;28;20514;-69
2022/06/18 05:49:42;;;;;;;0.95;0.30;;;20.90;95.40;;;;;;4953704;29;20039;-70
2022/06/18 05:52:09;;;;;;;0.60;0.43;;;21.00;95.20;;;;;;4954520;29;20079;-69
2022/06/18 05:54:35;;;;;;;0.22;0.22;;;21.00;94.70;;;;;;4953950;29;20031;-69
2022/06/18 05:57:01;;;;;;;0.30;0.30;;;21.00;94.80;;;;;;4955351;28;20114;-69
2022/06/18 05:59:26;;;;;;;0.25;0.25;;;21.20;94.70;;;;;;4953356;29;20155;-69
2022/06/18 06:01:56;;;;;;;0.10;0.10;;;21.30;94.70;;;;;;4952572;28;20031;-76
2022/06/18 06:04:26;;;;;;;0.35;0.10;;;21.40;94.40;;;;;;4955031;28;20020;-75
2022/06/18 06:06:52;;;;;;;0.00;0.00;;;21.60;94.40;;;;;;4966480;28;20028;-74
2022/06/18 06:12:09;;;;;;;2.58;1.15;;;21.90;93.60;;;;;;4954991;29;20515;-69
2022/06/18 06:14:37;;;;;;;0.30;0.20;;;22.10;93.30;;;;;;4969658;28;20506;-69
2022/06/18 06:17:03;;;;;;;3.83;0.40;;;22.20;93.40;;;;;;4969378;28;20542;-69
2022/06/18 06:19:29;;;;;;;1.23;1.00;;;22.40;93.00;;;;;;4954077;29;20093;-69
2022/06/18 06:21:55;;;;;;;0.20;0.17;;;22.40;92.60;;;;;;4954874;29;20547;-70
2022/06/18 06:24:21;;;;;;;0.10;0.10;;;22.50;92.00;;;;;;4969448;28;20058;-68
2022/06/18 06:26:46;;;;;;;0.00;0.00;;;22.50;91.80;;;;;;4953256;28;20126;-70
2022/06/18 06:29:12;;;;;;;1.10;0.77;;;22.70;91.80;;;;;;4954021;28;20115;-71
2022/06/18 06:31:38;;;;;;;0.70;0.60;;;22.70;91.90;;;;;;4954868;29;20121;-71
2022/06/18 06:34:04;;;;;;;0.52;0.50;;;22.70;91.80;;;;;;4953623;28;20086;-72
2022/06/18 06:36:30;;;;;;;0.00;0.00;;;22.90;91.50;;;;;;4953415;28;20050;-72
2022/06/18 06:38:55;;;;;;;0.03;0.03;;;23.00;91.30;;;;;;4952685;29;20038;-72
2022/06/18 06:41:28;;;;;;;2.55;0.63;;;23.10;90.80;;;;;;4952767;29;20038;-70
2022/06/18 06:43:53;;;;;;;0.22;0.22;;;23.30;90.80;;;;;;4953300;29;20042;-71
2022/06/18 06:46:19;;;;;;;0.10;0.10;;;23.40;90.70;;;;;;4954373;28;20039;-70
2022/06/18 06:48:46;;;;;;;0.20;0.20;;;23.30;90.30;;;;;;4953703;28;20110;-71
2022/06/18 06:51:18;;;;;;;0.30;0.30;;;23.50;89.90;;;;;;4954405;28;20078;-72
2022/06/18 06:53:44;;;;;;;0.45;0.28;;;23.60;90.00;;;;;;4952945;28;20042;-73
2022/06/18 06:58:56;;;;;;;0.05;0.05;;;23.40;89.40;;;;;;4953773;29;20086;-73
2022/06/18 07:01:23;;;;;;;0.77;0.77;;;23.50;90.10;;;;;;4954226;28;20032;-73
2022/06/18 07:03:49;;;;;;;0.77;0.50;;;23.60;90.00;;;;;;4953470;29;20074;-73
2022/06/18 07:06:16;;;;;;;0.08;0.08;;;23.60;89.70;;;;;;4953363;28;20054;-72
2022/06/18 07:08:43;;;;;;;2.10;1.17;;;23.70;89.00;;;;;;4953553;28;20030;-71
2022/06/18 07:11:10;;;;;;;0.20;0.13;;;23.70;88.80;;;;;;4952710;29;20583;-72
2022/06/18 07:13:37;;;;;;;0.43;0.40;;;23.90;87.90;;;;;;4953790;29;20391;-73
2022/06/18 07:16:04;;;;;;;0.00;0.00;;;24.20;87.20;;;;;;4953913;28;20027;-72
2022/06/18 07:18:35;;;;;;;0.17;0.17;;;24.20;87.10;;;;;;4968652;28;20488;-72
2022/06/18 07:21:06;;;;;;;0.35;0.32;;;24.20;88.00;;;;;;4954040;28;20035;-73
2022/06/18 07:23:33;;;;;;;;;;;24.20;86.50;;;;;;4954293;29;20549;-73
2022/06/18 07:25:59;;;;;;;0.10;0.10;;;24.30;86.70;;;;;;4953704;28;19914;-73
2022/06/18 07:28:25;;;;;;;0.05;0.00;;;24.50;86.90;;;;;;4952634;29;20027;-72
2022/06/18 07:30:51;;;;;;;0.13;0.10;;;24.50;85.30;;;;;;4953191;28;20058;-73
2022/06/18 07:33:23;;;;;;;0.52;0.28;;;24.70;85.40;;;;;;4952164;29;20456;-72
2022/06/18 07:35:50;;;;;;;0.10;0.10;;;24.90;84.60;;;;;;4952095;28;20047;-72
2022/06/18 07:38:16;;;;;;;0.00;0.00;;;25.00;84.70;;;;;;4952639;29;20027;-73
2022/06/18 07:40:48;;;;;;;0.03;0.03;;;25.10;83.00;;;;;;4951155;29;20387;-63
2022/06/18 07:43:29;;;;;;;0.32;0.10;;;25.20;82.70;;;;;;4952524;28;20034;-76
2022/06/18 07:45:55;;;;;;;0.15;0.15;;;25.20;82.50;;;;;;4952223;28;20046;-77
2022/06/18 07:48:21;;;;;;;0.50;0.50;;;25.40;82.40;;;;;;4953724;28;20031;-77
2022/06/18 07:50:47;;;;;;;0.00;0.00;;;25.40;82.40;;;;;;4953071;28;20114;-77
2022/06/18 07:53:22;;;;;;;0.32;0.25;;;25.50;82.40;;;;;;4951137;28;20033;-77
2022/06/18 07:55:49;;;;;;;0.13;0.13;;;25.60;81.50;;;;;;4953522;28;20035;-78
2022/06/18 07:58:15;;;;;;;0.08;0.05;;;25.70;80.90;;;;;;4953242;28;20035;-77
2022/06/18 08:00:42;;;;;;;0.35;0.25;;;25.80;81.10;;;;;;4950953;29;20547;-77
2022/06/18 08:03:11;;;;;;;0.85;0.70;;;25.90;80.40;;;;;;4951899;28;20045;-77
2022/06/18 08:05:37;;;;;;;0.10;0.10;;;26.10;79.40;;;;;;4951576;28;20482;-76
2022/06/18 08:08:04;;;;;;;0.00;0.00;;;26.30;79.00;;;;;;4952040;28;20031;-77
2022/06/18 08:10:34;;;;;;;0.00;0.00;;;26.30;78.30;;;;;;4950896;28;20086;-77
2022/06/18 08:13:00;;;;;;;0.05;0.00;;;26.50;76.70;;;;;;4951523;29;20617;-77
2022/06/18 08:15:26;;;;;;;0.28;0.28;;;26.40;77.20;;;;;;4951660;28;20027;-77
2022/06/18 08:17:51;;;;;;;0.30;0.30;;;26.50;76.30;;;;;;4951955;29;20027;-77
2022/06/18 08:20:17;;;;;;;1.75;0.65;;;26.60;77.70;;;;;;4952386;28;20588;-77
2022/06/18 08:22:48;;;;;;;0.35;0.35;;;26.80;75.50;;;;;;4950739;29;20359;-78
2022/06/18 08:25:17;;;;;;;0.75;0.30;;;26.80;74.40;;;;;;4951389;28;20035;-77
2022/06/18 08:27:44;;;;;;;0.98;0.40;;;26.90;75.30;;;;;;4935159;28;20062;-76
2022/06/18 08:30:11;;;;;;;0.28;0.22;;;27.00;75.30;;;;;;4932617;29;20058;-77
2022/06/18 08:32:37;;;;;;;0.43;0.22;;;27.00;74.90;;;;;;4952997;28;20027;-76
2022/06/18 08:35:03;;;;;;;0.75;0.38;;;27.00;74.30;;;;;;4952663;28;20114;-77
2022/06/18 08:37:29;;;;;;;1.70;0.75;;;27.20;75.40;;;;;;4983696;23;20074;-80
2022/06/18 08:39:57;;;;;;;0.10;0.10;;;27.30;75.30;;;;;;5002073;28;20074;-80
2022/06/18 08:43:00;;;;;;;1.58;0.73;;;27.40;75.40;;;;;;5006196;28;20042;-79
2022/06/18 08:45:37;;;;;;;0.10;0.10;;;27.50;74.50;;;;;;5006144;28;20027;-80
2022/06/18 08:49:04;;;;;;;0.00;0.00;;;27.60;75.40;;;;;;4971875;28;20043;-80
2022/06/18 08:52:12;;;;;;;0.05;0.05;;;27.90;73.60;;;;;;4969703;28;20451;-79
2022/06/18 08:55:01;;;;;;;0.20;0.10;;;28.00;73.10;;;;;;4971649;28;20037;-79
2022/06/18 08:57:47;;;;;;;0.13;0.13;;;27.90;73.50;;;;;;4986740;28;20030;-79
2022/06/18 09:00:36;;;;;;;0.00;0.00;;;28.20;71.80;;;;;;4970569;28;20030;-76
2022/06/18 09:03:32;;;;;;;0.20;0.20;;;28.30;72.00;;;;;;5000246;28;20607;-69
2022/06/18 09:06:29;;;;;;;0.57;0.55;;;28.40;70.80;;;;;;4971193;28;20100;-68
2022/06/18 09:09:12;;;;;;;0.10;0.00;;;28.50;71.20;;;;;;4970816;28;20037;-69
2022/06/18 09:11:43;;;;;;;0.10;0.10;;;28.60;70.10;;;;;;4971440;28;20030;-69
2022/06/18 09:14:36;;;;;;;0.50;0.40;;;28.70;69.40;;;;;;4971401;28;20039;-68
2022/06/18 09:17:29;;;;;;;0.03;0.03;;;28.60;68.90;;;;;;4971443;28;20504;-69
2022/06/18 09:20:07;;;;;;;0.00;0.00;;;28.70;68.00;;;;;;4998584;28;20463;-69
2022/06/18 09:22:41;;;;;;;0.20;0.20;;;29.00;66.70;;;;;;4971693;28;20023;-69
2022/06/18 09:25:18;;;;;;;0.90;0.32;;;29.00;67.90;;;;;;5001008;28;20026;-69
2022/06/18 09:27:58;;;;;;;0.20;0.15;;;29.10;66.40;;;;;;5001910;28;20023;-69
2022/06/18 09:30:37;;;;;;;17.90;0.52;;;29.20;66.10;;;;;;4999686;28;20034;-71
2022/06/18 09:33:26;;;;;;;0.00;0.00;;;29.30;67.80;;;;;;5000084;28;20546;-69
2022/06/18 09:36:01;;;;;;;0.05;0.05;;;29.60;67.90;;;;;;4970546;28;20110;-73
2022/06/18 09:38:34;;;;;;;0.93;0.77;;;29.60;66.30;;;;;;5000383;28;20442;-68
2022/06/18 09:41:20;;;;;;;0.00;0.00;;;29.70;66.40;;;;;;4970190;28;20022;-69
2022/06/18 09:44:19;;;;;;;0.20;0.20;;;29.70;65.80;;;;;;4971089;28;20118;-69
2022/06/18 09:47:05;;;;;;;1.65;0.20;;;30.00;63.10;;;;;;5000937;28;20031;-70
2022/06/18 09:49:32;;;;;;;0.45;0.20;;;30.00;63.90;;;;;;5000105;28;20644;-70
2022/06/18 09:52:32;;;;;;;0.40;0.32;;;30.20;64.80;;;;;;4971221;28;20077;-69
2022/06/18 09:55:03;;;;;;;;;;;29.90;64.80;;;;;;4997782;28;20031;-69
2022/06/18 09:57:34;;;;;;;0.10;0.10;;;30.10;62.60;;;;;;4969805;28;19914;-69
2022/06/18 10:00:16;;;;;;;3.13;0.88;;;30.30;62.30;;;;;;5000574;28;20066;-70
2022/06/18 10:02:57;;;;;;;0.10;0.10;;;30.60;62.50;;;;;;4986128;28;20109;-70
2022/06/18 10:08:38;;;;;;;1.50;0.65;;;30.40;62.20;;;;;;4969407;28;20034;-70
2022/06/18 10:11:08;;;;;;;0.00;0.00;;;30.60;59.70;;;;;;4970160;28;20059;-70
2022/06/18 10:13:43;;;;;;;0.17;0.10;;;30.70;60.10;;;;;;4969685;28;20027;-70
2022/06/18 10:16:28;;;;;;;0.10;0.00;;;30.80;58.60;;;;;;4972165;28;20042;-69
2022/06/18 10:19:43;;;;;;;0.40;0.30;;;30.80;57.90;;;;;;4972655;28;20109;-70
2022/06/18 10:22:14;;;;;;;0.38;0.15;;;30.90;58.20;;;;;;4964848;28;20050;-70
2022/06/18 10:25:27;;;;;;;0.30;0.30;;;31.00;56.30;;;;;;4973226;28;20033;-72
2022/06/18 10:27:58;;;;;;;0.30;0.15;;;31.20;56.90;;;;;;4968853;28;20530;-71
2022/06/18 10:30:58;;;;;;;1.17;0.90;;;31.30;57.80;;;;;;4973056;28;20057;-72
2022/06/18 10:33:31;;;;;;;0.20;0.20;;;31.70;56.00;;;;;;4974296;28;20031;-72
2022/06/18 10:36:24;;;;;;;0.10;0.10;;;31.50;55.70;;;;;;4972848;28;20039;-70
2022/06/18 10:39:38;;;;;;;0.05;0.05;;;31.50;56.50;;;;;;4973301;28;20034;-70
2022/06/18 10:42:42;;;;;;;0.00;0.00;;;31.60;56.10;;;;;;4924350;28;20050;-70
2022/06/18 10:45:53;;;;;;;0.00;0.00;;;31.90;55.20;;;;;;4973947;28;20022;-68
2022/06/18 10:48:26;;;;;;;0.47;0.20;;;31.90;55.50;;;;;;4898552;29;20028;-69
2022/06/18 10:50:55;;;;;;;0.38;0.25;;;32.00;53.10;;;;;;4897893;29;20064;-69
2022/06/18 10:53:45;;;;;;;1.75;0.28;;;32.00;55.50;;;;;;4913576;29;20056;-72
2022/06/18 10:56:22;;;;;;;0.20;0.20;;;32.10;56.40;;;;;;4900583;29;20056;-71
2022/06/18 10:58:52;;;;;;;0.00;0.00;;;32.30;55.40;;;;;;4912991;29;20040;-69
2022/06/18 11:01:31;;;;;;;1.02;0.15;;;32.40;56.20;;;;;;4913630;29;20115;-68
2022/06/18 11:04:19;;;;;;;0.00;0.00;;;32.60;55.40;;;;;;4897965;29;20043;-65
2022/06/18 11:06:48;;;;;;;0.13;0.10;;;32.90;55.60;;;;;;4896789;29;20068;-65
2022/06/18 11:09:23;;;;;;;0.40;0.10;;;32.90;55.60;;;;;;4913633;29;20622;-66
2022/06/18 11:12:00;;;;;;;0.20;0.20;;;32.80;55.70;;;;;;4911319;29;20040;-66
2022/06/18 11:14:27;;;;;;;1.15;0.15;;;32.80;55.70;;;;;;4919713;29;20489;-65
2022/06/18 11:16:55;;;;;;;0.00;0.00;;;32.90;54.80;;;;;;4912965;29;20145;-66
2022/06/18 11:19:34;;;;;;;0.00;0.00;;;33.00;54.10;;;;;;4977893;28;20038;-68
2022/06/18 11:22:27;;;;;;;0.05;0.05;;;33.10;54.40;;;;;;4987822;28;20394;-67
2022/06/18 11:24:56;;;;;;;0.00;0.00;;;33.00;55.30;;;;;;4985847;28;20058;-67
2022/06/18 11:27:27;;;;;;;0.30;0.20;;;32.90;55.40;;;;;;4972716;28;20397;-66
2022/06/18 11:29:55;;;;;;;0.22;0.22;;;32.70;56.20;;;;;;4972122;28;20066;-66
2022/06/18 11:32:45;;;;;;;0.30;0.30;;;32.80;55.80;;;;;;4971647;28;20065;-68
2022/06/18 11:35:16;;;;;;;0.28;0.20;;;33.40;56.40;;;;;;4971896;28;20041;-68
2022/06/18 11:37:42;;;;;;;0.35;0.32;;;33.60;56.30;;;;;;4972398;28;20065;-69
2022/06/18 11:40:09;;;;;;;1.17;0.73;;;34.00;56.40;;;;;;4971056;28;20582;-68
2022/06/18 11:43:02;;;;;;;0.22;0.22;;;34.00;56.50;;;;;;4972697;28;20033;-67
2022/06/18 11:45:53;;;;;;;0.00;0.00;;;34.00;56.50;;;;;;4955683;28;20109;-67
2022/06/18 11:48:38;;;;;;;0.30;0.20;;;34.00;56.30;;;;;;4940327;28;20041;-66
2022/06/18 11:51:24;;;;;;;0.10;0.10;;;34.20;56.10;;;;;;4972835;28;20081;-66
2022/06/18 11:54:05;;;;;;;0.20;0.08;;;34.50;55.10;;;;;;4971119;28;20027;-66
2022/06/18 11:56:51;;;;;;;12.57;1.10;;;34.60;56.20;;;;;;4972359;28;20114;-66
2022/06/18 11:59:46;;;;;;;0.30;0.20;;;34.60;55.20;;;;;;4970902;28;20027;-66
2022/06/18 12:02:27;;;;;;;0.73;0.30;;;34.80;56.00;;;;;;4978293;28;20022;-67
2022/06/18 12:05:24;;;;;;;0.20;0.20;;;34.60;55.40;;;;;;4990753;28;20057;-67
2022/06/18 12:07:56;;;;;;;3.03;0.15;;;34.60;55.80;;;;;;4984244;28;20023;-67
2022/06/18 12:11:02;;;;;;;0.10;0.10;;;35.10;54.90;;;;;;4970547;28;20023;-67
2022/06/18 12:13:41;;;;;;;0.20;0.13;;;35.30;54.40;;;;;;4971985;28;20039;-67
2022/06/18 12:16:36;;;;;;;0.13;0.13;;;35.50;54.20;;;;;;4970698;28;20125;-72
2022/06/18 12:19:30;;;;;;;0.47;0.35;;;35.20;54.50;;;;;;4970778;28;20035;-67
2022/06/18 12:22:28;;;;;;;0.10;0.00;;;35.20;54.30;;;;;;4970924;28;20046;-67
2022/06/18 12:25:21;;;;;;;0.10;0.10;;;35.40;54.50;;;;;;4970524;28;20464;-67
2022/06/18 12:28:04;;;;;;;0.05;0.05;;;35.50;54.80;;;;;;4971807;28;20062;-67
2022/06/18 12:31:05;;;;;;;0.00;0.00;;;35.10;53.80;;;;;;4970093;28;20034;-67
2022/06/18 12:34:25;;;;;;;0.52;0.47;;;35.40;54.10;;;;;;4970360;28;20035;-67
2022/06/18 12:37:03;;;;;;;0.50;0.50;;;35.70;52.70;;;;;;4970906;28;20503;-66
2022/06/18 12:39:54;;;;;;;3.75;0.47;;;35.70;52.70;;;;;;4970102;28;20042;-67
2022/06/18 12:42:30;;;;;;;0.40;0.32;;;35.70;52.60;;;;;;4971689;28;20518;-67
2022/06/18 12:45:08;;;;;;;0.10;0.10;;;35.80;52.60;;;;;;4969884;28;20483;-67
2022/06/18 12:48:04;;;;;;;0.82;0.80;;;36.00;51.80;;;;;;4970332;28;20030;-66
2022/06/18 12:51:44;;;;;;;0.00;0.00;;;36.30;51.60;;;;;;4970940;28;20038;-66
2022/06/18 12:54:35;;;;;;;0.80;0.30;;;36.60;51.70;;;;;;4928236;29;20087;-66
2022/06/18 12:57:34;;;;;;;1.17;0.73;;;36.80;50.20;;;;;;4954151;28;20078;-67
2022/06/18 13:00:19;;;;;;;2.80;1.05;;;36.40;49.00;;;;;;4969550;28;20365;-67
2022/06/18 13:03:22;;;;;;;0.17;0.17;;;36.60;48.80;;;;;;4980502;28;20136;-67
2022/06/18 13:05:59;;;;;;;0.43;0.43;;;36.50;49.90;;;;;;4990359;28;20045;-68
2022/06/18 13:08:56;;;;;;;0.10;0.10;;;36.90;48.90;;;;;;4989508;28;20034;-68
2022/06/18 13:11:34;;;;;;;0.32;0.28;;;36.90;50.00;;;;;;4989312;28;20035;-66
2022/06/18 13:14:53;;;;;;;0.70;0.68;;;37.10;50.50;;;;;;4990592;28;20081;-66
2022/06/18 13:17:31;;;;;;;0.38;0.30;;;37.10;49.20;;;;;;4989305;28;20045;-67
2022/06/18 13:20:08;;;;;;;2.22;1.50;;;37.00;50.20;;;;;;4989118;28;20041;-67
2022/06/18 13:22:34;;;;;;;0.40;0.20;;;37.10;49.30;;;;;;4973196;28;20114;-68
2022/06/18 13:28:26;;;;;;;2.92;0.93;;;36.90;47.30;;;;;;4989618;28;20061;-68
2022/06/18 13:31:28;;;;;;;1.45;0.80;;;36.80;48.10;;;;;;4974353;28;20114;-68
2022/06/18 13:34:07;;;;;;;0.32;0.30;;;37.20;48.80;;;;;;4970735;28;20080;-67
2022/06/18 13:36:58;;;;;;;0.25;0.25;;;37.10;48.20;;;;;;4970662;28;20109;-68
2022/06/18 13:39:58;;;;;;;0.20;0.17;;;37.30;48.50;;;;;;4970724;28;20043;-68
2022/06/18 13:42:44;;;;;;;1.60;0.73;;;38.20;48.20;;;;;;4970119;28;20054;-68
2022/06/18 13:45:58;;;;;;;29.50;0.90;;;38.40;47.70;;;;;;4969689;28;20145;-66
2022/06/18 13:48:42;;;;;;;2.17;0.65;;;38.80;45.50;;;;;;4971072;28;20104;-67
2022/06/18 13:51:07;;;;;;;0.17;0.10;;;39.20;46.00;;;;;;4973541;28;20505;-66
2022/06/18 13:53:37;;;;;;;0.47;0.32;;;39.40;45.00;;;;;;4974962;28;20043;-66